sensor_id;sensor_type;location;lat;lon;timestamp;pressure;altitude;pressure_sealevel;temperature;humidity
33161;BME280;19522;45.656;11.302;2023-07-13T00:02:21;98212.19;;;20.29;100.00
33161;BME280;19522;45.656;11.302;2023-07-13T00:04:47;98231.16;;;20.26;100.00
33161;BME280;19522;45.656;11.302;2023-07-13T00:07:13;98243.97;;;20.15;100.00
33161;BME280;19522;45.656;11.302;2023-07-13T00:09:40;98398.13;;;19.99;100.00
33161;BME280;19522;45.656;11.302;2023-07-13T00:12:31;98434.94;;;19.06;100.00
33161;BME280;19522;45.656;11.302;2023-07-13T00:14:57;98218.91;;;19.04;100.00
33161;BME280;19522;45.656;11.302;2023-07-13T00:17:25;98192.03;;;19.11;100.00
33161;BME280;19522;45.656;11.302;2023-07-13T00:19:51;98218.91;;;19.77;100.00
33161;BME280;19522;45.656;11.302;2023-07-13T00:22:17;98056.06;;;19.07;100.00
33161;BME280;19522;45.656;11.302;2023-07-13T00:24:44;98102.91;;;19.51;100.00
33161;BME280;19522;45.656;11.302;2023-07-13T00:27:10;98141.72;;;19.72;100.00
33161;BME280;19522;45.656;11.302;2023-07-13T00:29:36;98007.94;;;18.92;100.00
33161;BME280;19522;45.656;11.302;2023-07-13T00:32:06;98093.50;;;19.47;100.00
33161;BME280;19522;45.656;11.302;2023-07-13T00:34:32;98091.25;;;19.66;100.00
33161;BME280;19522;45.656;11.302;2023-07-13T00:36:58;98087.13;;;19.46;100.00
33161;BME280;19522;45.656;11.302;2023-07-13T00:39:24;97959.50;;;18.91;100.00
33161;BME280;19522;45.656;11.302;2023-07-13T00:41:50;97950.56;;;18.79;100.00
33161;BME280;19522;45.656;11.302;2023-07-13T00:44:18;98033.47;;;19.27;100.00
33161;BME280;19522;45.656;11.302;2023-07-13T00:46:43;97937.56;;;18.74;100.00
33161;BME280;19522;45.656;11.302;2023-07-13T00:49:12;97936.59;;;18.85;100.00
33161;BME280;19522;45.656;11.302;2023-07-13T00:52:00;98021.91;;;19.47;100.00
33161;BME280;19522;45.656;11.302;2023-07-13T00:54:35;97947.66;;;19.08;100.00
33161;BME280;19522;45.656;11.302;2023-07-13T00:57:05;98026.81;;;19.45;100.00
33161;BME280;19522;45.656;11.302;2023-07-13T00:59:35;98032.63;;;19.71;100.00
33161;BME280;19522;45.656;11.302;2023-07-13T01:02:02;97953.03;;;19.20;100.00
33161;BME280;19522;45.656;11.302;2023-07-13T01:04:29;98037.81;;;19.67;100.00
33161;BME280;19522;45.656;11.302;2023-07-13T01:06:56;97985.34;;;18.90;100.00
33161;BME280;19522;45.656;11.302;2023-07-13T01:09:22;97884.09;;;18.26;100.00
33161;BME280;19522;45.656;11.302;2023-07-13T01:11:48;97987.13;;;18.79;100.00
33161;BME280;19522;45.656;11.302;2023-07-13T01:14:14;98057.56;;;18.97;100.00
33161;BME280;19522;45.656;11.302;2023-07-13T01:16:41;98070.28;;;19.43;100.00
33161;BME280;19522;45.656;11.302;2023-07-13T01:19:33;97981.75;;;18.67;100.00
33161;BME280;19522;45.656;11.302;2023-07-13T01:22:10;98005.63;;;19.01;100.00
33161;BME280;19522;45.656;11.302;2023-07-13T01:24:38;98072.28;;;19.70;100.00
33161;BME280;19522;45.656;11.302;2023-07-13T01:27:08;98070.06;;;19.67;100.00
33161;BME280;19522;45.656;11.302;2023-07-13T01:29:36;98098.72;;;19.49;100.00
33161;BME280;19522;45.656;11.302;2023-07-13T01:32:12;97992.13;;;18.82;100.00
33161;BME280;19522;45.656;11.302;2023-07-13T01:34:38;98087.84;;;19.37;100.00
33161;BME280;19522;45.656;11.302;2023-07-13T01:37:05;98028.41;;;18.96;100.00
33161;BME280;19522;45.656;11.302;2023-07-13T01:39:31;98082.53;;;19.30;100.00
33161;BME280;19522;45.656;11.302;2023-07-13T01:41:57;98087.75;;;19.31;100.00
33161;BME280;19522;45.656;11.302;2023-07-13T01:44:22;98058.06;;;19.11;100.00
33161;BME280;19522;45.656;11.302;2023-07-13T01:46:48;97973.47;;;18.84;100.00
33161;BME280;19522;45.656;11.302;2023-07-13T01:49:13;98038.75;;;19.51;100.00
33161;BME280;19522;45.656;11.302;2023-07-13T01:51:39;98062.03;;;19.65;100.00
33161;BME280;19522;45.656;11.302;2023-07-13T01:54:04;98049.72;;;19.28;100.00
33161;BME280;19522;45.656;11.302;2023-07-13T01:56:30;98069.34;;;19.54;100.00
33161;BME280;19522;45.656;11.302;2023-07-13T01:58:56;98094.84;;;19.67;100.00
33161;BME280;19522;45.656;11.302;2023-07-13T02:01:22;98068.25;;;19.55;100.00
33161;BME280;19522;45.656;11.302;2023-07-13T02:03:50;97996.53;;;19.00;100.00
33161;BME280;19522;45.656;11.302;2023-07-13T02:06:15;98037.63;;;19.29;100.00
33161;BME280;19522;45.656;11.302;2023-07-13T02:08:41;98049.94;;;19.44;100.00
33161;BME280;19522;45.656;11.302;2023-07-13T02:11:08;98081.69;;;19.74;100.00
33161;BME280;19522;45.656;11.302;2023-07-13T02:13:34;98108.09;;;19.92;100.00
33161;BME280;19522;45.656;11.302;2023-07-13T02:16:00;98066.38;;;19.83;100.00
33161;BME280;19522;45.656;11.302;2023-07-13T02:18:26;98095.59;;;20.06;100.00
33161;BME280;19522;45.656;11.302;2023-07-13T02:20:52;98050.25;;;19.70;100.00
33161;BME280;19522;45.656;11.302;2023-07-13T02:23:17;98101.34;;;19.83;100.00
33161;BME280;19522;45.656;11.302;2023-07-13T02:25:43;98020.03;;;19.08;100.00
33161;BME280;19522;45.656;11.302;2023-07-13T02:28:08;98119.28;;;19.63;100.00
33161;BME280;19522;45.656;11.302;2023-07-13T02:30:35;98137.28;;;19.88;100.00
33161;BME280;19522;45.656;11.302;2023-07-13T02:33:00;98137.28;;;19.71;100.00
33161;BME280;19522;45.656;11.302;2023-07-13T02:35:26;98086.84;;;19.26;100.00
33161;BME280;19522;45.656;11.302;2023-07-13T02:37:52;98088.50;;;19.44;100.00
33161;BME280;19522;45.656;11.302;2023-07-13T02:40:17;98154.69;;;19.93;100.00
33161;BME280;19522;45.656;11.302;2023-07-13T02:42:46;98109.97;;;19.86;100.00
33161;BME280;19522;45.656;11.302;2023-07-13T02:45:11;98116.13;;;19.93;100.00
33161;BME280;19522;45.656;11.302;2023-07-13T02:47:40;98142.00;;;20.15;100.00
33161;BME280;19522;45.656;11.302;2023-07-13T02:50:09;98089.38;;;19.72;100.00
33161;BME280;19522;45.656;11.302;2023-07-13T02:52:35;98150.91;;;20.00;100.00
33161;BME280;19522;45.656;11.302;2023-07-13T02:55:00;98146.19;;;19.78;100.00
33161;BME280;19522;45.656;11.302;2023-07-13T02:57:26;98141.94;;;19.87;100.00
33161;BME280;19522;45.656;11.302;2023-07-13T02:59:53;98140.94;;;19.93;100.00
33161;BME280;19522;45.656;11.302;2023-07-13T03:02:19;98131.66;;;19.83;100.00
33161;BME280;19522;45.656;11.302;2023-07-13T03:04:44;98074.41;;;19.40;100.00
33161;BME280;19522;45.656;11.302;2023-07-13T03:07:10;97987.34;;;18.95;100.00
33161;BME280;19522;45.656;11.302;2023-07-13T03:09:36;98155.47;;;19.89;100.00
33161;BME280;19522;45.656;11.302;2023-07-13T03:12:02;98155.00;;;19.75;100.00
33161;BME280;19522;45.656;11.302;2023-07-13T03:14:28;98147.53;;;19.53;100.00
33161;BME280;19522;45.656;11.302;2023-07-13T03:16:53;98159.75;;;19.40;100.00
33161;BME280;19522;45.656;11.302;2023-07-13T03:19:19;98164.41;;;19.40;100.00
33161;BME280;19522;45.656;11.302;2023-07-13T03:21:45;98145.50;;;19.26;100.00
33161;BME280;19522;45.656;11.302;2023-07-13T03:24:11;98164.94;;;19.37;100.00
33161;BME280;19522;45.656;11.302;2023-07-13T03:26:37;98108.94;;;19.09;100.00
33161;BME280;19522;45.656;11.302;2023-07-13T03:29:02;98094.66;;;18.78;100.00
33161;BME280;19522;45.656;11.302;2023-07-13T03:31:33;98172.13;;;19.21;100.00
33161;BME280;19522;45.656;11.302;2023-07-13T03:33:59;98139.09;;;19.04;100.00
33161;BME280;19522;45.656;11.302;2023-07-13T03:36:27;98166.13;;;19.07;100.00
33161;BME280;19522;45.656;11.302;2023-07-13T03:38:55;98172.22;;;19.09;100.00
33161;BME280;19522;45.656;11.302;2023-07-13T03:41:22;98168.78;;;19.02;100.00
33161;BME280;19522;45.656;11.302;2023-07-13T03:43:48;98063.41;;;18.50;100.00
33161;BME280;19522;45.656;11.302;2023-07-13T03:46:15;98142.00;;;18.97;100.00
33161;BME280;19522;45.656;11.302;2023-07-13T03:48:43;98177.19;;;19.12;100.00
33161;BME280;19522;45.656;11.302;2023-07-13T03:51:11;98178.44;;;19.21;100.00
33161;BME280;19522;45.656;11.302;2023-07-13T03:53:40;98179.28;;;19.22;100.00
33161;BME280;19522;45.656;11.302;2023-07-13T03:56:06;98156.63;;;18.97;100.00
33161;BME280;19522;45.656;11.302;2023-07-13T03:58:37;98177.47;;;19.10;100.00
33161;BME280;19522;45.656;11.302;2023-07-13T04:01:05;98126.59;;;18.79;100.00
33161;BME280;19522;45.656;11.302;2023-07-13T04:03:32;98194.22;;;19.26;100.00
33161;BME280;19522;45.656;11.302;2023-07-13T04:05:59;98191.63;;;19.36;100.00
33161;BME280;19522;45.656;11.302;2023-07-13T04:08:31;98019.09;;;18.29;100.00
33161;BME280;19522;45.656;11.302;2023-07-13T04:10:57;98186.84;;;19.49;100.00
33161;BME280;19522;45.656;11.302;2023-07-13T04:13:26;98144.91;;;19.24;100.00
33161;BME280;19522;45.656;11.302;2023-07-13T04:15:53;98189.78;;;19.42;100.00
33161;BME280;19522;45.656;11.302;2023-07-13T04:18:19;98180.00;;;19.51;100.00
33161;BME280;19522;45.656;11.302;2023-07-13T04:20:46;98152.84;;;19.38;100.00
33161;BME280;19522;45.656;11.302;2023-07-13T04:23:12;98152.00;;;19.20;100.00
33161;BME280;19522;45.656;11.302;2023-07-13T04:25:38;98085.97;;;18.86;100.00
33161;BME280;19522;45.656;11.302;2023-07-13T04:28:04;98169.16;;;19.44;100.00
33161;BME280;19522;45.656;11.302;2023-07-13T04:30:31;98169.75;;;19.46;100.00
33161;BME280;19522;45.656;11.302;2023-07-13T04:32:59;98187.78;;;19.37;100.00
33161;BME280;19522;45.656;11.302;2023-07-13T04:35:24;98128.97;;;18.92;100.00
33161;BME280;19522;45.656;11.302;2023-07-13T04:37:50;98102.22;;;18.88;100.00
33161;BME280;19522;45.656;11.302;2023-07-13T04:40:17;98180.00;;;19.51;100.00
33161;BME280;19522;45.656;11.302;2023-07-13T04:42:44;98116.44;;;19.13;100.00
33161;BME280;19522;45.656;11.302;2023-07-13T04:45:10;98144.00;;;19.36;100.00
33161;BME280;19522;45.656;11.302;2023-07-13T04:47:35;98133.56;;;19.38;100.00
33161;BME280;19522;45.656;11.302;2023-07-13T04:50:01;98098.91;;;19.03;100.00
33161;BME280;19522;45.656;11.302;2023-07-13T04:52:27;98103.59;;;19.02;100.00
33161;BME280;19522;45.656;11.302;2023-07-13T04:54:52;98207.69;;;19.61;100.00
33161;BME280;19522;45.656;11.302;2023-07-13T04:57:18;98190.75;;;19.53;100.00
33161;BME280;19522;45.656;11.302;2023-07-13T04:59:43;98082.56;;;18.96;100.00
33161;BME280;19522;45.656;11.302;2023-07-13T05:02:10;98122.06;;;19.24;100.00
33161;BME280;19522;45.656;11.302;2023-07-13T05:04:35;98208.06;;;19.87;100.00
33161;BME280;19522;45.656;11.302;2023-07-13T05:07:01;98221.28;;;19.85;100.00
33161;BME280;19522;45.656;11.302;2023-07-13T05:09:27;98213.72;;;19.98;100.00
33161;BME280;19522;45.656;11.302;2023-07-13T05:11:52;98135.50;;;19.59;100.00
33161;BME280;19522;45.656;11.302;2023-07-13T05:14:18;98085.19;;;19.25;100.00
33161;BME280;19522;45.656;11.302;2023-07-13T05:16:44;98136.00;;;19.17;100.00
33161;BME280;19522;45.656;11.302;2023-07-13T05:19:10;98107.50;;;19.06;100.00
33161;BME280;19522;45.656;11.302;2023-07-13T05:21:35;98146.38;;;19.49;100.00
33161;BME280;19522;45.656;11.302;2023-07-13T05:24:01;98226.47;;;20.04;100.00
33161;BME280;19522;45.656;11.302;2023-07-13T05:26:26;98163.00;;;19.76;100.00
33161;BME280;19522;45.656;11.302;2023-07-13T05:28:52;98227.84;;;20.23;100.00
33161;BME280;19522;45.656;11.302;2023-07-13T05:31:18;98153.66;;;20.00;100.00
33161;BME280;19522;45.656;11.302;2023-07-13T05:33:47;98049.00;;;19.33;100.00
33161;BME280;19522;45.656;11.302;2023-07-13T05:36:12;98164.75;;;20.05;100.00
33161;BME280;19522;45.656;11.302;2023-07-13T05:38:38;98236.31;;;20.66;100.00
33161;BME280;19522;45.656;11.302;2023-07-13T05:41:03;98066.44;;;19.66;100.00
33161;BME280;19522;45.656;11.302;2023-07-13T05:43:29;98202.78;;;20.52;100.00
33161;BME280;19522;45.656;11.302;2023-07-13T05:45:56;98207.22;;;20.31;100.00
33161;BME280;19522;45.656;11.302;2023-07-13T05:48:22;98182.88;;;20.23;100.00
33161;BME280;19522;45.656;11.302;2023-07-13T05:50:48;98168.38;;;20.33;100.00
33161;BME280;19522;45.656;11.302;2023-07-13T05:53:15;98125.06;;;20.28;100.00
33161;BME280;19522;45.656;11.302;2023-07-13T05:55:45;98220.06;;;20.70;100.00
33161;BME280;19522;45.656;11.302;2023-07-13T05:58:13;98224.50;;;20.98;100.00
33161;BME280;19522;45.656;11.302;2023-07-13T06:00:39;98163.34;;;20.79;100.00
33161;BME280;19522;45.656;11.302;2023-07-13T06:03:06;98213.84;;;20.80;100.00
33161;BME280;19522;45.656;11.302;2023-07-13T06:05:32;98161.97;;;20.54;100.00
33161;BME280;19522;45.656;11.302;2023-07-13T06:07:59;98149.19;;;20.43;100.00
33161;BME280;19522;45.656;11.302;2023-07-13T06:10:25;98210.06;;;20.86;100.00
33161;BME280;19522;45.656;11.302;2023-07-13T06:12:51;98215.09;;;20.94;100.00
33161;BME280;19522;45.656;11.302;2023-07-13T06:15:17;98059.41;;;20.25;100.00
33161;BME280;19522;45.656;11.302;2023-07-13T06:17:43;97896.34;;;19.24;100.00
33161;BME280;19522;45.656;11.302;2023-07-13T06:20:09;98208.56;;;21.38;100.00
33161;BME280;19522;45.656;11.302;2023-07-13T06:22:35;98129.56;;;20.99;100.00
33161;BME280;19522;45.656;11.302;2023-07-13T06:25:00;98177.09;;;21.44;100.00
33161;BME280;19522;45.656;11.302;2023-07-13T06:27:26;98171.84;;;21.43;100.00
33161;BME280;19522;45.656;11.302;2023-07-13T06:29:52;98115.84;;;21.10;100.00
33161;BME280;19522;45.656;11.302;2023-07-13T06:32:17;98206.28;;;21.68;100.00
33161;BME280;19522;45.656;11.302;2023-07-13T06:34:43;98110.81;;;21.01;100.00
33161;BME280;19522;45.656;11.302;2023-07-13T06:37:09;98177.59;;;21.36;100.00
33161;BME280;19522;45.656;11.302;2023-07-13T06:39:35;98210.63;;;21.58;100.00
33161;BME280;19522;45.656;11.302;2023-07-13T06:42:00;98210.44;;;21.70;100.00
33161;BME280;19522;45.656;11.302;2023-07-13T06:44:26;98232.59;;;21.81;100.00
33161;BME280;19522;45.656;11.302;2023-07-13T06:46:51;98206.03;;;21.74;100.00
33161;BME280;19522;45.656;11.302;2023-07-13T06:49:17;98094.63;;;21.15;100.00
33161;BME280;19522;45.656;11.302;2023-07-13T06:51:43;98228.28;;;22.00;100.00
33161;BME280;19522;45.656;11.302;2023-07-13T06:54:08;98208.69;;;22.02;100.00
33161;BME280;19522;45.656;11.302;2023-07-13T06:56:34;98117.44;;;21.43;100.00
33161;BME280;19522;45.656;11.302;2023-07-13T06:58:59;98128.91;;;21.68;100.00
33161;BME280;19522;45.656;11.302;2023-07-13T07:01:25;98198.22;;;22.14;100.00
33161;BME280;19522;45.656;11.302;2023-07-13T07:03:51;98211.56;;;22.33;100.00
33161;BME280;19522;45.656;11.302;2023-07-13T07:06:19;98131.16;;;21.71;100.00
33161;BME280;19522;45.656;11.302;2023-07-13T07:08:45;98165.44;;;21.80;100.00
33161;BME280;19522;45.656;11.302;2023-07-13T07:11:20;98212.06;;;22.19;100.00
33161;BME280;19522;45.656;11.302;2023-07-13T07:13:48;98215.13;;;22.28;100.00
33161;BME280;19522;45.656;11.302;2023-07-13T07:16:16;98141.16;;;21.87;100.00
33161;BME280;19522;45.656;11.302;2023-07-13T07:18:42;98145.59;;;21.83;100.00
33161;BME280;19522;45.656;11.302;2023-07-13T07:21:08;98099.00;;;21.54;100.00
33161;BME280;19522;45.656;11.302;2023-07-13T07:23:34;98208.75;;;22.17;100.00
33161;BME280;19522;45.656;11.302;2023-07-13T07:25:59;98154.69;;;21.84;100.00
33161;BME280;19522;45.656;11.302;2023-07-13T07:28:25;98152.53;;;22.01;100.00
33161;BME280;19522;45.656;11.302;2023-07-13T07:30:54;98148.69;;;22.07;100.00
33161;BME280;19522;45.656;11.302;2023-07-13T07:33:20;98197.44;;;22.29;100.00
33161;BME280;19522;45.656;11.302;2023-07-13T07:35:46;98227.41;;;22.43;100.00
33161;BME280;19522;45.656;11.302;2023-07-13T07:38:11;98137.56;;;21.87;100.00
33161;BME280;19522;45.656;11.302;2023-07-13T07:40:38;98236.84;;;22.52;100.00
33161;BME280;19522;45.656;11.302;2023-07-13T07:43:06;98175.28;;;22.14;100.00
33161;BME280;19522;45.656;11.302;2023-07-13T07:45:31;98233.53;;;22.60;100.00
33161;BME280;19522;45.656;11.302;2023-07-13T07:47:59;98184.22;;;22.41;97.49
33161;BME280;19522;45.656;11.302;2023-07-13T07:50:26;98225.81;;;22.72;98.44
33161;BME280;19522;45.656;11.302;2023-07-13T07:52:52;98251.00;;;22.81;99.20
33161;BME280;19522;45.656;11.302;2023-07-13T07:55:18;98251.28;;;22.80;99.51
33161;BME280;19522;45.656;11.302;2023-07-13T07:57:43;98250.47;;;22.84;100.00
33161;BME280;19522;45.656;11.302;2023-07-13T08:00:09;98098.31;;;21.90;100.00
33161;BME280;19522;45.656;11.302;2023-07-13T08:02:35;98224.69;;;22.68;100.00
33161;BME280;19522;45.656;11.302;2023-07-13T08:05:01;98201.00;;;22.24;100.00
33161;BME280;19522;45.656;11.302;2023-07-13T08:07:26;98171.38;;;22.04;100.00
33161;BME280;19522;45.656;11.302;2023-07-13T08:09:53;98258.69;;;22.48;100.00
33161;BME280;19522;45.656;11.302;2023-07-13T08:12:21;98230.66;;;22.34;100.00
33161;BME280;19522;45.656;11.302;2023-07-13T08:14:50;98273.94;;;22.61;100.00
33161;BME280;19522;45.656;11.302;2023-07-13T08:17:22;98252.50;;;22.31;100.00
33161;BME280;19522;45.656;11.302;2023-07-13T08:19:47;98270.88;;;22.58;100.00
33161;BME280;19522;45.656;11.302;2023-07-13T08:22:13;98268.97;;;22.63;100.00
33161;BME280;19522;45.656;11.302;2023-07-13T08:24:39;98272.63;;;22.84;99.93
33161;BME280;19522;45.656;11.302;2023-07-13T08:27:04;98269.84;;;22.84;100.00
33161;BME280;19522;45.656;11.302;2023-07-13T08:29:33;98244.59;;;22.65;100.00
33161;BME280;19522;45.656;11.302;2023-07-13T08:31:59;98254.59;;;22.71;100.00
33161;BME280;19522;45.656;11.302;2023-07-13T08:34:25;98199.06;;;22.15;100.00
33161;BME280;19522;45.656;11.302;2023-07-13T08:36:50;98245.41;;;22.50;100.00
33161;BME280;19522;45.656;11.302;2023-07-13T08:39:16;98221.88;;;22.43;100.00
33161;BME280;19522;45.656;11.302;2023-07-13T08:41:43;98225.25;;;22.70;100.00
33161;BME280;19522;45.656;11.302;2023-07-13T08:44:25;98234.16;;;22.83;100.00
33161;BME280;19522;45.656;11.302;2023-07-13T08:46:52;98225.28;;;23.07;100.00
33161;BME280;19522;45.656;11.302;2023-07-13T08:49:22;98122.84;;;22.50;100.00
33161;BME280;19522;45.656;11.302;2023-07-13T08:52:09;98202.88;;;23.08;99.74
33161;BME280;19522;45.656;11.302;2023-07-13T08:54:49;98186.00;;;23.10;96.99
33161;BME280;19522;45.656;11.302;2023-07-13T08:57:24;98189.03;;;23.08;92.67
33161;BME280;19522;45.656;11.302;2023-07-13T08:59:55;98163.53;;;22.91;92.56
33161;BME280;19522;45.656;11.302;2023-07-13T09:02:45;98216.19;;;23.32;90.42
33161;BME280;19522;45.656;11.302;2023-07-13T09:05:21;98231.44;;;23.29;89.54
33161;BME280;19522;45.656;11.302;2023-07-13T09:10:46;98246.41;;;23.28;86.91
33161;BME280;19522;45.656;11.302;2023-07-13T09:15:43;98231.38;;;23.14;87.68
33161;BME280;19522;45.656;11.302;2023-07-13T09:18:26;98257.19;;;23.35;88.42
33161;BME280;19522;45.656;11.302;2023-07-13T09:23:39;98151.94;;;22.78;88.68
33161;BME280;19522;45.656;11.302;2023-07-13T09:26:17;98223.09;;;23.03;89.18
33161;BME280;19522;45.656;11.302;2023-07-13T09:28:46;98229.19;;;23.16;89.57
33161;BME280;19522;45.656;11.302;2023-07-13T09:31:32;98228.66;;;23.19;87.52
33161;BME280;19522;45.656;11.302;2023-07-13T09:33:59;98182.63;;;22.66;85.73
33161;BME280;19522;45.656;11.302;2023-07-13T09:36:28;98256.59;;;23.07;86.61
33161;BME280;19522;45.656;11.302;2023-07-13T09:42:07;98240.53;;;22.88;90.05
33161;BME280;19522;45.656;11.302;2023-07-13T09:44:51;98240.50;;;22.99;91.00
33161;BME280;19522;45.656;11.302;2023-07-13T09:47:19;98255.78;;;23.17;92.13
33161;BME280;19522;45.656;11.302;2023-07-13T09:49:54;98236.97;;;23.19;92.16
33161;BME280;19522;45.656;11.302;2023-07-13T09:52:21;98252.16;;;23.11;91.93
33161;BME280;19522;45.656;11.302;2023-07-13T09:54:49;98235.84;;;23.10;91.68
33161;BME280;19522;45.656;11.302;2023-07-13T09:57:19;98235.81;;;22.99;92.32
33161;BME280;19522;45.656;11.302;2023-07-13T09:59:50;98237.50;;;23.00;91.66
33161;BME280;19522;45.656;11.302;2023-07-13T10:02:30;98236.97;;;23.24;91.06
33161;BME280;19522;45.656;11.302;2023-07-13T10:05:01;98231.41;;;23.45;89.69
33161;BME280;19522;45.656;11.302;2023-07-13T10:07:29;98216.16;;;23.58;89.08
33161;BME280;19522;45.656;11.302;2023-07-13T10:09:57;98149.44;;;23.33;88.16
33161;BME280;19522;45.656;11.302;2023-07-13T10:12:24;98198.09;;;23.86;86.40
33161;BME280;19522;45.656;11.302;2023-07-13T10:14:52;98232.16;;;24.07;83.92
33161;BME280;19522;45.656;11.302;2023-07-13T10:17:31;98229.59;;;24.26;86.94
33161;BME280;19522;45.656;11.302;2023-07-13T10:20:00;98214.22;;;24.50;81.88
33161;BME280;19522;45.656;11.302;2023-07-13T10:22:42;98186.69;;;24.58;81.06
33161;BME280;19522;45.656;11.302;2023-07-13T10:25:21;98186.50;;;24.89;80.87
33161;BME280;19522;45.656;11.302;2023-07-13T10:27:51;98157.56;;;25.01;80.47
33161;BME280;19522;45.656;11.302;2023-07-13T10:30:25;98158.94;;;25.33;78.67
33161;BME280;19522;45.656;11.302;2023-07-13T10:32:53;98124.59;;;25.24;77.75
33161;BME280;19522;45.656;11.302;2023-07-13T10:35:21;98076.81;;;25.22;75.45
33161;BME280;19522;45.656;11.302;2023-07-13T10:38:14;98172.56;;;26.12;71.31
33161;BME280;19522;45.656;11.302;2023-07-13T10:40:47;98182.44;;;26.24;71.05
33161;BME280;19522;45.656;11.302;2023-07-13T10:43:23;98086.72;;;25.81;63.03
33161;BME280;19522;45.656;11.302;2023-07-13T10:45:53;98177.69;;;26.49;67.30
33161;BME280;19522;45.656;11.302;2023-07-13T10:48:20;98161.84;;;26.25;62.40
33161;BME280;19522;45.656;11.302;2023-07-13T10:50:51;98141.78;;;26.28;62.35
33161;BME280;19522;45.656;11.302;2023-07-13T10:53:28;98179.84;;;26.71;62.81
33161;BME280;19522;45.656;11.302;2023-07-13T11:03:27;98049.84;;;25.71;62.30
33161;BME280;19522;45.656;11.302;2023-07-13T11:06:09;98143.22;;;26.25;60.53
33161;BME280;19522;45.656;11.302;2023-07-13T11:08:59;98145.91;;;26.31;62.51
33161;BME280;19522;45.656;11.302;2023-07-13T11:11:36;98154.84;;;26.27;61.16
33161;BME280;19522;45.656;11.302;2023-07-13T11:14:42;98170.41;;;26.28;57.97
33161;BME280;19522;45.656;11.302;2023-07-13T11:20:18;98103.25;;;26.35;56.22
33161;BME280;19522;45.656;11.302;2023-07-13T11:22:50;98079.13;;;26.31;55.85
33161;BME280;19522;45.656;11.302;2023-07-13T11:25:27;98191.59;;;27.06;55.61
33161;BME280;19522;45.656;11.302;2023-07-13T11:28:16;98104.81;;;26.80;54.98
33161;BME280;19522;45.656;11.302;2023-07-13T11:31:00;98177.09;;;27.23;53.91
33161;BME280;19522;45.656;11.302;2023-07-13T11:33:50;98177.59;;;26.92;53.85
33161;BME280;19522;45.656;11.302;2023-07-13T11:36:23;98178.13;;;26.94;55.53
33161;BME280;19522;45.656;11.302;2023-07-13T11:41:30;98173.09;;;26.96;57.47
33161;BME280;19522;45.656;11.302;2023-07-13T11:44:13;98168.75;;;27.04;56.45
33161;BME280;19522;45.656;11.302;2023-07-13T11:46:45;98129.88;;;26.80;54.87
33161;BME280;19522;45.656;11.302;2023-07-13T11:49:15;98046.38;;;26.41;56.20
33161;BME280;19522;45.656;11.302;2023-07-13T11:51:45;98065.91;;;26.74;56.96
33161;BME280;19522;45.656;11.302;2023-07-13T11:54:30;98152.72;;;27.48;56.70
33161;BME280;19522;45.656;11.302;2023-07-13T11:57:23;98132.06;;;27.49;55.69
33161;BME280;19522;45.656;11.302;2023-07-13T11:59:51;98149.31;;;27.51;56.03
33161;BME280;19522;45.656;11.302;2023-07-13T12:02:40;98152.38;;;27.35;56.33
33161;BME280;19522;45.656;11.302;2023-07-13T12:05:12;98115.09;;;26.98;58.18
33161;BME280;19522;45.656;11.302;2023-07-13T12:07:38;98149.22;;;27.23;59.45
33161;BME280;19522;45.656;11.302;2023-07-13T12:10:27;98141.75;;;27.04;59.31
33161;BME280;19522;45.656;11.302;2023-07-13T12:13:04;98140.91;;;27.04;62.78
33161;BME280;19522;45.656;11.302;2023-07-13T12:15:38;98138.63;;;27.25;60.34
33161;BME280;19522;45.656;11.302;2023-07-13T12:18:31;98131.56;;;27.61;62.56
33161;BME280;19522;45.656;11.302;2023-07-13T12:21:00;98047.41;;;27.45;57.33
33161;BME280;19522;45.656;11.302;2023-07-13T12:23:33;98134.25;;;27.94;56.62
33161;BME280;19522;45.656;11.302;2023-07-13T12:26:06;98111.63;;;27.81;55.14
33161;BME280;19522;45.656;11.302;2023-07-13T12:28:37;98132.06;;;28.19;58.43
33161;BME280;19522;45.656;11.302;2023-07-13T12:31:06;98126.88;;;28.40;57.59
33161;BME280;19522;45.656;11.302;2023-07-13T12:33:33;98127.31;;;28.70;55.31
33161;BME280;19522;45.656;11.302;2023-07-13T12:36:03;98070.44;;;28.29;54.74
33161;BME280;19522;45.656;11.302;2023-07-13T12:38:31;98024.31;;;28.54;54.99
33161;BME280;19522;45.656;11.302;2023-07-13T12:40:58;98102.75;;;29.03;54.52
33161;BME280;19522;45.656;11.302;2023-07-13T12:43:36;98027.94;;;28.32;55.79
33161;BME280;19522;45.656;11.302;2023-07-13T12:46:24;98116.06;;;29.29;54.70
33161;BME280;19522;45.656;11.302;2023-07-13T12:48:54;98051.53;;;28.85;55.27
33161;BME280;19522;45.656;11.302;2023-07-13T12:51:27;98069.56;;;28.79;53.64
33161;BME280;19522;45.656;11.302;2023-07-13T12:56:57;97993.88;;;28.89;53.12
33161;BME280;19522;45.656;11.302;2023-07-13T12:59:26;98079.66;;;29.43;55.64
33161;BME280;19522;45.656;11.302;2023-07-13T13:01:54;98030.63;;;28.83;54.63
33161;BME280;19522;45.656;11.302;2023-07-13T13:04:20;98078.44;;;28.81;53.23
33161;BME280;19522;45.656;11.302;2023-07-13T13:06:47;98099.63;;;28.59;54.45
33161;BME280;19522;45.656;11.302;2023-07-13T13:09:15;98074.59;;;28.54;54.26
33161;BME280;19522;45.656;11.302;2023-07-13T13:11:41;98084.38;;;28.66;57.27
33161;BME280;19522;45.656;11.302;2023-07-13T13:14:07;98093.44;;;28.49;55.46
33161;BME280;19522;45.656;11.302;2023-07-13T13:16:53;98095.56;;;28.29;56.56
33161;BME280;19522;45.656;11.302;2023-07-13T13:19:25;98050.34;;;27.90;57.64
33161;BME280;19522;45.656;11.302;2023-07-13T13:21:53;98039.84;;;27.73;57.44